Hobart Regional Office, Australia
Current Conditions -  °F | °C
As of 7:00 AM on Tuesday 27 Jan 2015 (Local Time) from YMHB Reporting Station
Broken Clouds Broken Clouds  
Wind Chill: 54°   Ceiling: 5500
Heat Index: 54°   Visibility: 6mi
Dew Point: 43°   Wind: 10mph
Humidity: 67%   Direction: 310°NW
Pressure: 30.03"   Gusts: NA
Location:  42.88°S, 147.32°E
Report Text: YMHB 262000Z 31009KT 9999 FEW014 SCT035 BKN055 12/06 Q1017
Loading
Personal Weather Stations






























Interactive Weather Map New forecast layout! Learn more

10-Day Weather Forecast

Advertisements
Track Severe Weather on mobile